Αρχική σελίδα
METAR-TAF:

METAR-TAF

Αεροδρόμια :

Κίνγκστον, Τζαμάικα

γεωγραφικό πλάτος: 17-56N, γεωγραφικό μήκος: 076-47W, υψόμετρο: 3 μ

Παρών καιρός

Η αναφορά έγινε 1 ώρα και 8 λεπτά πριν, στις 04:00 UTC
Άνεμος 4 kt από Β
Θερμοκρασία 26°C
Υγρασία 61%
Πίεση 1017 hPa
Ορατότητα 10 χλμ και άνω
Λίγα νέφη σε ύψος 2200 πόδια

METAR: MKJP 110400Z 01004KT 9999 FEW022 26/18 Q1017

Χρόνος: 00:08 (05:08 UTC)

Πρόγνωση Καιρού

Η αναφορά έγινε 5 ώρες και 53 λεπτά πριν, στις 23:15 UTC
Η πρόγνωση ισχύει από τις 11 στις 00 UTC έως τις 11 στις 24 UTC
Άνεμος 5 kt από Β
Ορατότητα 10 χλμ και άνω
Λίγα νέφη σε ύψος 2200 πόδια
Καθιστάμενος
από 11 στις 14 UTC έως τις 11 στις 16 UTC
Άνεμος 10 kt από Ν/NA

TAF: MKJP 102315Z 1100/1124 01005KT 9999 FEW022 BECMG 1114/1116 16010KT

Μετεωρολογικές αναφορές και προγνώσεις για περισσότερα από 4000 αεροδρόμια (δελτία METAR και TAF).

Οι διαθέσιμοι σταθμοί απεικονίζονται στο χάρτη με κίτρινες και κόκκινες κουκκίδες.

Μετακινήστε το ποντίκι πάνω από τις κουκκίδες για να δείτε το όνομα του σταθμού.

Στη συνέχεια, κάντε κλικ για να δείτε τις μετεωρολογικές αναφορές και τις προγνώσεις καιρού.

Για να αλλάξετε το χάρτη: κάντε κλικ στα πράσινα κουμπιά με τον μαύρο σταυρό για να ζουμάρετε, στο πράσινο κουμπί με την παύλα για να αφαιρέσετε το ζουμ ή στα πράσινα βέλη για να αντιπαραβάλλετε χάρτες.


METAR-TAF: